sensor_id;sensor_type;location;lat;lon;timestamp;pressure;altitude;pressure_sealevel;temperature;humidity
7075;BME280;3578;51.568;6.932;2023-09-08T00:00:42;53264.09;;;-144.14;100.00
7075;BME280;3578;51.568;6.932;2023-09-08T00:03:09;53203.97;;;-144.14;100.00
7075;BME280;3578;51.568;6.932;2023-09-08T00:05:36;53159.88;;;-144.14;100.00
7075;BME280;3578;51.568;6.932;2023-09-08T00:08:04;53157.88;;;-144.14;100.00
7075;BME280;3578;51.568;6.932;2023-09-08T00:10:31;53197.97;;;-144.14;100.00
7075;BME280;3578;51.568;6.932;2023-09-08T00:12:59;53242.06;;;-144.14;100.00
7075;BME280;3578;51.568;6.932;2023-09-08T00:15:26;53238.03;;;-144.14;100.00
7075;BME280;3578;51.568;6.932;2023-09-08T00:17:53;53214.00;;;-144.14;100.00
7075;BME280;3578;51.568;6.932;2023-09-08T00:20:22;53250.06;;;-144.14;100.00
7075;BME280;3578;51.568;6.932;2023-09-08T00:22:50;53256.09;;;-144.14;100.00
7075;BME280;3578;51.568;6.932;2023-09-08T00:25:17;53258.09;;;-144.14;100.00
7075;BME280;3578;51.568;6.932;2023-09-08T00:27:44;53234.03;;;-144.14;100.00
7075;BME280;3578;51.568;6.932;2023-09-08T00:30:13;53270.13;;;-144.14;100.00
7075;BME280;3578;51.568;6.932;2023-09-08T00:32:40;53226.03;;;-144.14;100.00
7075;BME280;3578;51.568;6.932;2023-09-08T00:35:07;53238.03;;;-144.14;100.00
7075;BME280;3578;51.568;6.932;2023-09-08T00:37:34;53266.09;;;-144.14;100.00
7075;BME280;3578;51.568;6.932;2023-09-08T00:40:00;53226.03;;;-144.14;100.00
7075;BME280;3578;51.568;6.932;2023-09-08T00:42:27;53258.09;;;-144.14;100.00
7075;BME280;3578;51.568;6.932;2023-09-08T00:44:54;53274.13;;;-144.14;100.00
7075;BME280;3578;51.568;6.932;2023-09-08T00:47:22;53218.00;;;-144.14;100.00
7075;BME280;3578;51.568;6.932;2023-09-08T00:49:50;53185.94;;;-144.14;100.00
7075;BME280;3578;51.568;6.932;2023-09-08T00:52:17;53185.94;;;-144.14;100.00
7075;BME280;3578;51.568;6.932;2023-09-08T00:54:44;53163.91;;;-144.14;100.00
7075;BME280;3578;51.568;6.932;2023-09-08T00:57:11;53157.88;;;-144.14;100.00
7075;BME280;3578;51.568;6.932;2023-09-08T00:59:38;53141.84;;;-144.14;100.00
7075;BME280;3578;51.568;6.932;2023-09-08T01:02:06;53139.84;;;-144.14;100.00
7075;BME280;3578;51.568;6.932;2023-09-08T01:04:34;53109.78;;;-144.14;100.00
7075;BME280;3578;51.568;6.932;2023-09-08T01:07:02;53113.78;;;-144.14;100.00
7075;BME280;3578;51.568;6.932;2023-09-08T01:09:30;53105.78;;;-144.14;100.00
7075;BME280;3578;51.568;6.932;2023-09-08T01:11:57;53129.81;;;-144.14;100.00
7075;BME280;3578;51.568;6.932;2023-09-08T01:14:27;53153.88;;;-144.14;100.00
7075;BME280;3578;51.568;6.932;2023-09-08T01:16:54;53161.91;;;-144.14;100.00
7075;BME280;3578;51.568;6.932;2023-09-08T01:19:22;53111.78;;;-144.14;100.00
7075;BME280;3578;51.568;6.932;2023-09-08T01:22:45;53107.78;;;-144.14;100.00
7075;BME280;3578;51.568;6.932;2023-09-08T01:25:18;53109.78;;;-144.14;100.00
7075;BME280;3578;51.568;6.932;2023-09-08T01:27:48;53117.81;;;-144.14;100.00
7075;BME280;3578;51.568;6.932;2023-09-08T01:30:17;53212.00;;;-144.14;100.00
7075;BME280;3578;51.568;6.932;2023-09-08T01:32:44;53203.97;;;-144.14;100.00
7075;BME280;3578;51.568;6.932;2023-09-08T01:35:12;53187.94;;;-144.14;100.00
7075;BME280;3578;51.568;6.932;2023-09-08T01:37:41;53210.00;;;-144.14;100.00
7075;BME280;3578;51.568;6.932;2023-09-08T01:40:09;53218.00;;;-144.14;100.00
7075;BME280;3578;51.568;6.932;2023-09-08T01:42:39;53191.94;;;-144.14;100.00
7075;BME280;3578;51.568;6.932;2023-09-08T01:45:07;53181.94;;;-144.14;100.00
7075;BME280;3578;51.568;6.932;2023-09-08T01:47:34;53145.84;;;-144.14;100.00
7075;BME280;3578;51.568;6.932;2023-09-08T01:50:01;53105.78;;;-144.14;100.00
7075;BME280;3578;51.568;6.932;2023-09-08T01:52:29;53049.66;;;-144.14;100.00
7075;BME280;3578;51.568;6.932;2023-09-08T01:54:56;53029.63;;;-144.14;100.00
7075;BME280;3578;51.568;6.932;2023-09-08T01:57:23;53065.69;;;-144.14;100.00
7075;BME280;3578;51.568;6.932;2023-09-08T01:59:51;53007.59;;;-144.14;100.00
7075;BME280;3578;51.568;6.932;2023-09-08T02:02:18;53029.63;;;-144.14;100.00
7075;BME280;3578;51.568;6.932;2023-09-08T02:04:46;52989.56;;;-144.14;100.00
7075;BME280;3578;51.568;6.932;2023-09-08T02:07:13;53009.59;;;-144.14;100.00
7075;BME280;3578;51.568;6.932;2023-09-08T02:09:40;52999.56;;;-144.14;100.00
7075;BME280;3578;51.568;6.932;2023-09-08T02:12:07;52959.50;;;-144.14;100.00
7075;BME280;3578;51.568;6.932;2023-09-08T02:14:35;52989.56;;;-144.14;100.00
7075;BME280;3578;51.568;6.932;2023-09-08T02:17:07;52927.44;;;-144.14;100.00
7075;BME280;3578;51.568;6.932;2023-09-08T02:19:34;52941.44;;;-144.14;100.00
7075;BME280;3578;51.568;6.932;2023-09-08T02:22:02;52953.47;;;-144.14;100.00
7075;BME280;3578;51.568;6.932;2023-09-08T02:24:29;52927.44;;;-144.14;100.00
7075;BME280;3578;51.568;6.932;2023-09-08T02:26:55;52919.41;;;-144.14;100.00
7075;BME280;3578;51.568;6.932;2023-09-08T02:29:23;52921.41;;;-144.14;100.00
7075;BME280;3578;51.568;6.932;2023-09-08T02:31:49;52935.44;;;-144.14;100.00
7075;BME280;3578;51.568;6.932;2023-09-08T02:34:18;52881.34;;;-144.14;100.00
7075;BME280;3578;51.568;6.932;2023-09-08T02:36:45;52883.34;;;-144.14;100.00
7075;BME280;3578;51.568;6.932;2023-09-08T02:39:13;52875.31;;;-144.14;100.00
7075;BME280;3578;51.568;6.932;2023-09-08T02:41:40;52891.34;;;-144.14;100.00
7075;BME280;3578;51.568;6.932;2023-09-08T02:44:07;52931.44;;;-144.14;100.00
7075;BME280;3578;51.568;6.932;2023-09-08T02:46:34;52907.38;;;-144.14;100.00
7075;BME280;3578;51.568;6.932;2023-09-08T02:49:01;52903.38;;;-144.14;100.00
7075;BME280;3578;51.568;6.932;2023-09-08T02:51:29;52919.41;;;-144.14;100.00
7075;BME280;3578;51.568;6.932;2023-09-08T02:53:56;52929.44;;;-144.14;100.00
7075;BME280;3578;51.568;6.932;2023-09-08T02:56:23;52917.41;;;-144.14;100.00
7075;BME280;3578;51.568;6.932;2023-09-08T02:58:50;52927.44;;;-144.14;100.00
7075;BME280;3578;51.568;6.932;2023-09-08T03:01:17;52929.44;;;-144.14;100.00
7075;BME280;3578;51.568;6.932;2023-09-08T03:03:46;52911.41;;;-144.14;100.00
7075;BME280;3578;51.568;6.932;2023-09-08T03:06:15;52961.50;;;-144.14;100.00
7075;BME280;3578;51.568;6.932;2023-09-08T03:08:43;52987.53;;;-144.14;100.00
7075;BME280;3578;51.568;6.932;2023-09-08T03:11:10;53033.63;;;-144.14;100.00
7075;BME280;3578;51.568;6.932;2023-09-08T03:13:37;53053.69;;;-144.14;100.00
7075;BME280;3578;51.568;6.932;2023-09-08T03:16:05;53027.63;;;-144.14;100.00
7075;BME280;3578;51.568;6.932;2023-09-08T03:18:32;53047.66;;;-144.14;100.00
7075;BME280;3578;51.568;6.932;2023-09-08T03:20:59;52999.56;;;-144.14;100.00
7075;BME280;3578;51.568;6.932;2023-09-08T03:23:29;53037.66;;;-144.14;100.00
7075;BME280;3578;51.568;6.932;2023-09-08T03:25:57;53035.63;;;-144.14;100.00
7075;BME280;3578;51.568;6.932;2023-09-08T03:28:24;53023.63;;;-144.14;100.00
7075;BME280;3578;51.568;6.932;2023-09-08T03:30:51;52877.34;;;-144.14;100.00
7075;BME280;3578;51.568;6.932;2023-09-08T03:33:18;52825.22;;;-144.14;100.00
7075;BME280;3578;51.568;6.932;2023-09-08T03:35:46;52813.22;;;-144.14;100.00
7075;BME280;3578;51.568;6.932;2023-09-08T03:38:12;52843.25;;;-144.14;100.00
7075;BME280;3578;51.568;6.932;2023-09-08T03:40:40;52863.31;;;-144.14;100.00
7075;BME280;3578;51.568;6.932;2023-09-08T03:43:09;52811.19;;;-144.14;100.00
7075;BME280;3578;51.568;6.932;2023-09-08T03:45:36;52789.16;;;-144.14;100.00
7075;BME280;3578;51.568;6.932;2023-09-08T03:48:04;52817.22;;;-144.14;100.00
7075;BME280;3578;51.568;6.932;2023-09-08T03:50:31;52783.16;;;-144.14;100.00
7075;BME280;3578;51.568;6.932;2023-09-08T03:52:58;52817.22;;;-144.14;100.00
7075;BME280;3578;51.568;6.932;2023-09-08T03:55:25;52829.25;;;-144.14;100.00
7075;BME280;3578;51.568;6.932;2023-09-08T03:57:52;52805.19;;;-144.14;100.00
7075;BME280;3578;51.568;6.932;2023-09-08T04:00:20;52789.16;;;-144.14;100.00
7075;BME280;3578;51.568;6.932;2023-09-08T04:02:48;52797.19;;;-144.14;100.00
7075;BME280;3578;51.568;6.932;2023-09-08T04:05:16;52767.13;;;-144.14;100.00
7075;BME280;3578;51.568;6.932;2023-09-08T04:07:44;52817.22;;;-144.14;100.00
7075;BME280;3578;51.568;6.932;2023-09-08T04:10:11;52743.06;;;-144.14;100.00
7075;BME280;3578;51.568;6.932;2023-09-08T04:12:39;52773.13;;;-144.14;100.00
7075;BME280;3578;51.568;6.932;2023-09-08T04:15:08;52795.16;;;-144.14;100.00
7075;BME280;3578;51.568;6.932;2023-09-08T04:17:37;52793.16;;;-144.14;100.00
7075;BME280;3578;51.568;6.932;2023-09-08T04:20:05;52833.25;;;-144.14;100.00
7075;BME280;3578;51.568;6.932;2023-09-08T04:22:34;52813.22;;;-144.14;100.00
7075;BME280;3578;51.568;6.932;2023-09-08T04:25:02;52835.25;;;-144.14;100.00
7075;BME280;3578;51.568;6.932;2023-09-08T04:27:29;52819.22;;;-144.14;100.00
7075;BME280;3578;51.568;6.932;2023-09-08T04:29:56;52831.25;;;-144.14;100.00
7075;BME280;3578;51.568;6.932;2023-09-08T04:32:22;52817.22;;;-144.14;100.00
7075;BME280;3578;51.568;6.932;2023-09-08T04:34:51;52805.19;;;-144.14;100.00
7075;BME280;3578;51.568;6.932;2023-09-08T04:37:18;52773.13;;;-144.14;100.00
7075;BME280;3578;51.568;6.932;2023-09-08T04:39:45;52797.19;;;-144.14;100.00
7075;BME280;3578;51.568;6.932;2023-09-08T04:42:12;52757.09;;;-144.14;100.00
7075;BME280;3578;51.568;6.932;2023-09-08T04:44:39;52761.09;;;-144.14;100.00
7075;BME280;3578;51.568;6.932;2023-09-08T04:47:06;52652.91;;;-144.14;100.00
7075;BME280;3578;51.568;6.932;2023-09-08T04:49:32;52745.06;;;-144.14;100.00
7075;BME280;3578;51.568;6.932;2023-09-08T04:52:01;52745.06;;;-144.14;100.00
7075;BME280;3578;51.568;6.932;2023-09-08T04:54:28;52745.06;;;-144.14;100.00
7075;BME280;3578;51.568;6.932;2023-09-08T04:56:55;52725.03;;;-144.14;100.00
7075;BME280;3578;51.568;6.932;2023-09-08T04:59:22;52761.09;;;-144.14;100.00
7075;BME280;3578;51.568;6.932;2023-09-08T05:01:49;52761.09;;;-144.14;100.00
7075;BME280;3578;51.568;6.932;2023-09-08T05:04:17;52743.06;;;-144.14;100.00
7075;BME280;3578;51.568;6.932;2023-09-08T05:06:44;52715.03;;;-144.14;100.00
7075;BME280;3578;51.568;6.932;2023-09-08T05:09:13;52749.09;;;-144.14;100.00
7075;BME280;3578;51.568;6.932;2023-09-08T05:11:40;52815.22;;;-144.14;100.00
7075;BME280;3578;51.568;6.932;2023-09-08T05:14:07;52761.09;;;-144.14;100.00
7075;BME280;3578;51.568;6.932;2023-09-08T05:16:34;52777.13;;;-144.14;100.00
7075;BME280;3578;51.568;6.932;2023-09-08T05:19:11;52761.09;;;-144.14;100.00
7075;BME280;3578;51.568;6.932;2023-09-08T05:21:38;52797.19;;;-144.14;100.00
7075;BME280;3578;51.568;6.932;2023-09-08T05:24:07;52805.19;;;-144.14;100.00
7075;BME280;3578;51.568;6.932;2023-09-08T05:26:37;52769.13;;;-144.14;100.00
7075;BME280;3578;51.568;6.932;2023-09-08T05:29:05;52815.22;;;-144.14;100.00
7075;BME280;3578;51.568;6.932;2023-09-08T05:31:32;52793.16;;;-144.14;100.00
7075;BME280;3578;51.568;6.932;2023-09-08T05:33:59;52809.19;;;-144.14;100.00
7075;BME280;3578;51.568;6.932;2023-09-08T05:36:26;52843.25;;;-144.14;100.00
7075;BME280;3578;51.568;6.932;2023-09-08T05:38:55;52821.22;;;-144.14;100.00
7075;BME280;3578;51.568;6.932;2023-09-08T05:41:22;52849.28;;;-144.14;100.00
7075;BME280;3578;51.568;6.932;2023-09-08T05:43:50;52843.25;;;-144.14;100.00
7075;BME280;3578;51.568;6.932;2023-09-08T05:46:17;52833.25;;;-144.14;100.00
7075;BME280;3578;51.568;6.932;2023-09-08T05:48:44;52835.25;;;-144.14;100.00
7075;BME280;3578;51.568;6.932;2023-09-08T05:51:12;52797.19;;;-144.14;100.00
7075;BME280;3578;51.568;6.932;2023-09-08T05:53:39;52789.16;;;-144.14;100.00
7075;BME280;3578;51.568;6.932;2023-09-08T05:56:06;52769.13;;;-144.14;100.00
7075;BME280;3578;51.568;6.932;2023-09-08T05:58:34;52761.09;;;-144.14;100.00
7075;BME280;3578;51.568;6.932;2023-09-08T06:01:03;52777.13;;;-144.14;100.00
7075;BME280;3578;51.568;6.932;2023-09-08T06:03:30;52787.16;;;-144.14;100.00
7075;BME280;3578;51.568;6.932;2023-09-08T06:05:57;52765.13;;;-144.14;100.00
7075;BME280;3578;51.568;6.932;2023-09-08T06:08:24;52803.19;;;-144.14;100.00
7075;BME280;3578;51.568;6.932;2023-09-08T06:10:50;52813.22;;;-144.14;100.00
7075;BME280;3578;51.568;6.932;2023-09-08T06:13:17;52893.38;;;-144.14;100.00
7075;BME280;3578;51.568;6.932;2023-09-08T06:15:44;52901.38;;;-144.14;100.00
7075;BME280;3578;51.568;6.932;2023-09-08T06:18:12;52943.47;;;-144.14;100.00
7075;BME280;3578;51.568;6.932;2023-09-08T06:20:45;52927.44;;;-144.14;100.00
7075;BME280;3578;51.568;6.932;2023-09-08T06:23:12;52901.38;;;-144.14;100.00
7075;BME280;3578;51.568;6.932;2023-09-08T06:25:39;52895.38;;;-144.14;100.00
7075;BME280;3578;51.568;6.932;2023-09-08T06:28:07;52953.47;;;-144.14;100.00
7075;BME280;3578;51.568;6.932;2023-09-08T06:30:34;52921.41;;;-144.14;100.00
7075;BME280;3578;51.568;6.932;2023-09-08T06:33:00;52959.50;;;-144.14;100.00
7075;BME280;3578;51.568;6.932;2023-09-08T06:35:30;52855.28;;;-144.14;100.00
7075;BME280;3578;51.568;6.932;2023-09-08T06:37:57;52817.22;;;-144.14;100.00
7075;BME280;3578;51.568;6.932;2023-09-08T06:40:24;52819.22;;;-144.14;100.00
7075;BME280;3578;51.568;6.932;2023-09-08T06:42:51;52849.28;;;-144.14;100.00
7075;BME280;3578;51.568;6.932;2023-09-08T06:45:18;52913.41;;;-144.14;100.00
7075;BME280;3578;51.568;6.932;2023-09-08T06:47:45;52977.53;;;-144.14;100.00
7075;BME280;3578;51.568;6.932;2023-09-08T06:50:12;52987.53;;;-144.14;100.00
7075;BME280;3578;51.568;6.932;2023-09-08T06:52:40;53011.59;;;-144.14;100.00
7075;BME280;3578;51.568;6.932;2023-09-08T06:55:08;52985.53;;;-144.14;100.00
7075;BME280;3578;51.568;6.932;2023-09-08T06:57:35;52965.50;;;-144.14;100.00
7075;BME280;3578;51.568;6.932;2023-09-08T07:00:03;52921.41;;;-144.14;100.00
7075;BME280;3578;51.568;6.932;2023-09-08T07:02:33;52959.50;;;-144.14;100.00
7075;BME280;3578;51.568;6.932;2023-09-08T07:05:00;53037.66;;;-144.14;100.00
7075;BME280;3578;51.568;6.932;2023-09-08T07:07:32;53055.69;;;-144.14;100.00
7075;BME280;3578;51.568;6.932;2023-09-08T07:10:01;53097.75;;;-144.14;100.00
7075;BME280;3578;51.568;6.932;2023-09-08T07:12:27;53047.66;;;-144.14;100.00
7075;BME280;3578;51.568;6.932;2023-09-08T07:14:55;53037.66;;;-144.14;100.00
7075;BME280;3578;51.568;6.932;2023-09-08T07:17:22;53089.75;;;-144.14;100.00
7075;BME280;3578;51.568;6.932;2023-09-08T07:19:49;53065.69;;;-144.14;100.00
7075;BME280;3578;51.568;6.932;2023-09-08T07:22:16;53095.75;;;-144.14;100.00
7075;BME280;3578;51.568;6.932;2023-09-08T07:24:43;53302.19;;;-144.14;100.00
7075;BME280;3578;51.568;6.932;2023-09-08T07:27:12;53566.72;;;-144.14;100.00
7075;BME280;3578;51.568;6.932;2023-09-08T07:29:40;53616.84;;;-144.14;100.00
7075;BME280;3578;51.568;6.932;2023-09-08T07:32:07;53496.59;;;-144.14;100.00
7075;BME280;3578;51.568;6.932;2023-09-08T07:34:34;53398.38;;;-144.14;100.00
7075;BME280;3578;51.568;6.932;2023-09-08T07:37:01;53350.28;;;-144.14;100.00
7075;BME280;3578;51.568;6.932;2023-09-08T07:39:28;53330.25;;;-144.14;100.00
7075;BME280;3578;51.568;6.932;2023-09-08T07:41:55;53324.22;;;-144.14;100.00
7075;BME280;3578;51.568;6.932;2023-09-08T07:44:24;53320.22;;;-144.14;100.00
7075;BME280;3578;51.568;6.932;2023-09-08T07:46:51;53326.22;;;-144.14;100.00
7075;BME280;3578;51.568;6.932;2023-09-08T07:49:18;53382.34;;;-144.14;100.00
7075;BME280;3578;51.568;6.932;2023-09-08T07:51:46;53412.41;;;-144.14;100.00
7075;BME280;3578;51.568;6.932;2023-09-08T07:54:13;53402.38;;;-144.14;100.00
7075;BME280;3578;51.568;6.932;2023-09-08T07:56:40;53448.47;;;-144.14;100.00
7075;BME280;3578;51.568;6.932;2023-09-08T07:59:08;53514.63;;;-144.14;100.00
7075;BME280;3578;51.568;6.932;2023-09-08T08:01:37;53546.69;;;-144.14;100.00
7075;BME280;3578;51.568;6.932;2023-09-08T08:04:04;53594.78;;;-144.14;100.00
7075;BME280;3578;51.568;6.932;2023-09-08T08:06:31;53691.00;;;-144.14;100.00
7075;BME280;3578;51.568;6.932;2023-09-08T08:08:57;53672.97;;;-144.14;100.00
7075;BME280;3578;51.568;6.932;2023-09-08T08:11:24;53727.06;;;-144.14;100.00
7075;BME280;3578;51.568;6.932;2023-09-08T08:13:52;53789.22;;;-144.14;100.00
7075;BME280;3578;51.568;6.932;2023-09-08T08:16:19;53879.41;;;-144.14;100.00
7075;BME280;3578;51.568;6.932;2023-09-08T08:18:49;53865.38;;;-144.14;100.00
7075;BME280;3578;51.568;6.932;2023-09-08T08:21:15;53923.50;;;-144.14;100.00
7075;BME280;3578;51.568;6.932;2023-09-08T08:23:42;53935.53;;;-144.14;100.00
7075;BME280;3578;51.568;6.932;2023-09-08T08:26:09;53957.59;;;-144.14;100.00
7075;BME280;3578;51.568;6.932;2023-09-08T08:28:36;53971.63;;;-144.14;100.00
7075;BME280;3578;51.568;6.932;2023-09-08T08:31:03;54023.75;;;-144.14;99.96
7075;BME280;3578;51.568;6.932;2023-09-08T08:33:31;54007.69;;;-144.14;98.26
7075;BME280;3578;51.568;6.932;2023-09-08T08:35:59;53993.66;;;-144.14;99.65
7075;BME280;3578;51.568;6.932;2023-09-08T08:38:26;54045.78;;;-144.14;98.13
7075;BME280;3578;51.568;6.932;2023-09-08T08:40:53;54045.78;;;-144.14;98.00
7075;BME280;3578;51.568;6.932;2023-09-08T08:43:22;54039.78;;;-144.14;97.77
7075;BME280;3578;51.568;6.932;2023-09-08T08:45:50;54053.81;;;-144.14;96.23
7075;BME280;3578;51.568;6.932;2023-09-08T08:48:19;54101.91;;;-144.14;95.14
7075;BME280;3578;51.568;6.932;2023-09-08T08:50:47;54081.88;;;-144.14;94.90
7075;BME280;3578;51.568;6.932;2023-09-08T08:53:17;54067.84;;;-144.14;96.39
7075;BME280;3578;51.568;6.932;2023-09-08T08:55:47;54079.88;;;-144.14;96.47
7075;BME280;3578;51.568;6.932;2023-09-08T08:58:15;54105.94;;;-144.14;95.09
7075;BME280;3578;51.568;6.932;2023-09-08T09:00:44;54172.09;;;-144.14;94.57
7075;BME280;3578;51.568;6.932;2023-09-08T09:03:12;54144.00;;;-144.14;94.76
7075;BME280;3578;51.568;6.932;2023-09-08T09:05:41;54168.06;;;-144.14;94.56
7075;BME280;3578;51.568;6.932;2023-09-08T09:08:09;54230.22;;;-144.14;93.35
7075;BME280;3578;51.568;6.932;2023-09-08T09:10:38;54260.28;;;-144.14;93.15
7075;BME280;3578;51.568;6.932;2023-09-08T09:13:05;54274.31;;;-144.14;91.87
7075;BME280;3578;51.568;6.932;2023-09-08T09:15:32;54280.34;;;-144.14;91.02
7075;BME280;3578;51.568;6.932;2023-09-08T09:18:04;54322.44;;;-144.14;88.94
7075;BME280;3578;51.568;6.932;2023-09-08T09:20:32;54324.44;;;-144.14;88.95
7075;BME280;3578;51.568;6.932;2023-09-08T09:22:59;54360.53;;;-144.14;89.11
7075;BME280;3578;51.568;6.932;2023-09-08T09:25:28;54384.56;;;-144.14;88.10
7075;BME280;3578;51.568;6.932;2023-09-08T09:27:59;54420.66;;;-144.14;88.10
7075;BME280;3578;51.568;6.932;2023-09-08T09:30:27;54432.69;;;-144.14;86.89
7075;BME280;3578;51.568;6.932;2023-09-08T09:33:02;54452.75;;;-144.14;87.31
7075;BME280;3578;51.568;6.932;2023-09-08T09:35:43;54472.78;;;-144.14;86.70
7075;BME280;3578;51.568;6.932;2023-09-08T09:38:11;54492.84;;;-144.14;86.35
7075;BME280;3578;51.568;6.932;2023-09-08T09:40:38;54526.91;;;-144.14;84.92
7075;BME280;3578;51.568;6.932;2023-09-08T09:43:07;54603.09;;;-144.14;85.52
7075;BME280;3578;51.568;6.932;2023-09-08T09:45:36;54585.06;;;-144.14;86.68
7075;BME280;3578;51.568;6.932;2023-09-08T09:48:07;54601.09;;;-144.14;84.95
7075;BME280;3578;51.568;6.932;2023-09-08T09:50:37;54661.25;;;-144.14;83.56
7075;BME280;3578;51.568;6.932;2023-09-08T09:53:09;54685.31;;;-144.14;80.72
7075;BME280;3578;51.568;6.932;2023-09-08T09:55:38;54741.44;;;-144.14;77.29
7075;BME280;3578;51.568;6.932;2023-09-08T09:58:08;54769.50;;;-144.14;74.23
7075;BME280;3578;51.568;6.932;2023-09-08T10:00:36;54797.59;;;-144.14;75.78
7075;BME280;3578;51.568;6.932;2023-09-08T10:03:05;54905.84;;;-144.14;76.29
7075;BME280;3578;51.568;6.932;2023-09-08T10:05:32;54907.88;;;-144.14;78.03
7075;BME280;3578;51.568;6.932;2023-09-08T10:08:00;54837.69;;;-144.14;81.53
7075;BME280;3578;51.568;6.932;2023-09-08T10:10:28;54817.63;;;-144.14;80.29
7075;BME280;3578;51.568;6.932;2023-09-08T10:13:01;54809.63;;;-144.14;79.56
7075;BME280;3578;51.568;6.932;2023-09-08T10:15:31;54813.63;;;-144.14;78.26
7075;BME280;3578;51.568;6.932;2023-09-08T10:18:00;54877.78;;;-144.14;77.60
7075;BME280;3578;51.568;6.932;2023-09-08T10:20:30;54857.75;;;-144.14;76.18
7075;BME280;3578;51.568;6.932;2023-09-08T10:23:07;54921.91;;;-144.14;77.53
7075;BME280;3578;51.568;6.932;2023-09-08T10:25:44;54885.81;;;-144.14;79.41
7075;BME280;3578;51.568;6.932;2023-09-08T10:28:19;54939.94;;;-144.14;80.42
7075;BME280;3578;51.568;6.932;2023-09-08T10:30:48;54941.94;;;-144.14;79.53
7075;BME280;3578;51.568;6.932;2023-09-08T10:33:15;54943.94;;;-144.14;78.12
7075;BME280;3578;51.568;6.932;2023-09-08T10:35:43;55010.13;;;-144.14;77.82
7075;BME280;3578;51.568;6.932;2023-09-08T10:38:31;55150.47;;;-144.14;71.12
7075;BME280;3578;51.568;6.932;2023-09-08T10:41:28;55186.59;;;-144.14;69.36
7075;BME280;3578;51.568;6.932;2023-09-08T10:44:02;55172.53;;;-144.14;71.07
7075;BME280;3578;51.568;6.932;2023-09-08T10:46:33;55178.56;;;-144.14;72.17
7075;BME280;3578;51.568;6.932;2023-09-08T10:49:05;55166.53;;;-144.14;72.57
7075;BME280;3578;51.568;6.932;2023-09-08T10:51:34;55178.56;;;-144.14;70.35
7075;BME280;3578;51.568;6.932;2023-09-08T10:54:01;55194.59;;;-144.14;68.65
7075;BME280;3578;51.568;6.932;2023-09-08T10:56:47;55172.53;;;-144.14;69.58
7075;BME280;3578;51.568;6.932;2023-09-08T10:59:15;55224.69;;;-144.14;70.42
7075;BME280;3578;51.568;6.932;2023-09-08T11:01:43;55246.75;;;-144.14;68.07
7075;BME280;3578;51.568;6.932;2023-09-08T11:04:12;55210.63;;;-144.14;67.16
7075;BME280;3578;51.568;6.932;2023-09-08T11:06:40;55318.94;;;-144.14;67.17
7075;BME280;3578;51.568;6.932;2023-09-08T11:09:07;55355.03;;;-144.14;64.19
7075;BME280;3578;51.568;6.932;2023-09-08T11:11:35;55433.22;;;-144.14;67.25
7075;BME280;3578;51.568;6.932;2023-09-08T11:14:03;55473.34;;;-144.14;66.68
7075;BME280;3578;51.568;6.932;2023-09-08T11:16:30;55435.25;;;-144.14;70.20
7075;BME280;3578;51.568;6.932;2023-09-08T11:19:00;55463.31;;;-144.14;70.24
7075;BME280;3578;51.568;6.932;2023-09-08T11:21:30;55467.31;;;-144.14;69.77
7075;BME280;3578;51.568;6.932;2023-09-08T11:24:01;55429.22;;;-144.14;72.63
7075;BME280;3578;51.568;6.932;2023-09-08T11:26:33;55449.28;;;-144.14;70.41
7075;BME280;3578;51.568;6.932;2023-09-08T11:29:00;55447.28;;;-144.14;69.66
7075;BME280;3578;51.568;6.932;2023-09-08T11:31:27;55507.44;;;-144.14;66.18
7075;BME280;3578;51.568;6.932;2023-09-08T11:33:55;55519.47;;;-144.14;64.77
7075;BME280;3578;51.568;6.932;2023-09-08T11:36:23;55575.63;;;-144.14;62.95
7075;BME280;3578;51.568;6.932;2023-09-08T11:38:50;55563.59;;;-144.14;61.99
7075;BME280;3578;51.568;6.932;2023-09-08T11:41:19;55543.53;;;-144.14;65.61
7075;BME280;3578;51.568;6.932;2023-09-08T11:43:49;55559.56;;;-144.14;66.91
7075;BME280;3578;51.568;6.932;2023-09-08T11:46:17;55607.72;;;-144.14;68.33
7075;BME280;3578;51.568;6.932;2023-09-08T11:48:45;55615.72;;;-144.14;67.91
7075;BME280;3578;51.568;6.932;2023-09-08T11:51:12;55675.91;;;-144.14;66.01
7075;BME280;3578;51.568;6.932;2023-09-08T11:53:41;55703.97;;;-144.14;64.95
7075;BME280;3578;51.568;6.932;2023-09-08T11:56:09;55651.81;;;-144.14;62.86
7075;BME280;3578;51.568;6.932;2023-09-08T11:58:36;55756.13;;;-144.14;60.80
7075;BME280;3578;51.568;6.932;2023-09-08T12:01:04;55760.13;;;-144.14;61.57
7075;BME280;3578;51.568;6.932;2023-09-08T12:03:31;55736.06;;;-144.14;62.72
7075;BME280;3578;51.568;6.932;2023-09-08T12:05:58;55772.16;;;-144.14;58.31
7075;BME280;3578;51.568;6.932;2023-09-08T12:08:27;55820.28;;;-144.14;59.25
7075;BME280;3578;51.568;6.932;2023-09-08T12:10:56;55854.38;;;-144.14;61.78
7075;BME280;3578;51.568;6.932;2023-09-08T12:13:23;55824.31;;;-144.14;63.90
7075;BME280;3578;51.568;6.932;2023-09-08T12:15:50;55860.41;;;-144.14;55.71
7075;BME280;3578;51.568;6.932;2023-09-08T12:18:17;55756.13;;;-144.14;61.97
7075;BME280;3578;51.568;6.932;2023-09-08T12:20:45;55796.22;;;-144.14;59.99
7075;BME280;3578;51.568;6.932;2023-09-08T12:23:20;55934.63;;;-144.14;59.15
7075;BME280;3578;51.568;6.932;2023-09-08T12:25:48;55912.56;;;-144.14;59.61
7075;BME280;3578;51.568;6.932;2023-09-08T12:28:18;55906.53;;;-144.14;61.26
7075;BME280;3578;51.568;6.932;2023-09-08T12:30:46;55964.69;;;-144.14;60.26
7075;BME280;3578;51.568;6.932;2023-09-08T12:33:14;56052.94;;;-144.14;56.37
7075;BME280;3578;51.568;6.932;2023-09-08T12:35:43;56028.88;;;-144.14;57.52
7075;BME280;3578;51.568;6.932;2023-09-08T12:38:10;56060.97;;;-144.14;62.86
7075;BME280;3578;51.568;6.932;2023-09-08T12:40:38;56058.97;;;-144.14;62.63
7075;BME280;3578;51.568;6.932;2023-09-08T12:43:05;56042.94;;;-144.14;62.61
7075;BME280;3578;51.568;6.932;2023-09-08T12:45:34;56058.97;;;-144.14;61.45
7075;BME280;3578;51.568;6.932;2023-09-08T12:48:02;56095.06;;;-144.14;61.23
7075;BME280;3578;51.568;6.932;2023-09-08T12:50:29;56071.00;;;-144.14;60.08
7075;BME280;3578;51.568;6.932;2023-09-08T12:52:56;56121.16;;;-144.14;58.36
7075;BME280;3578;51.568;6.932;2023-09-08T12:55:23;56119.16;;;-144.14;57.93
7075;BME280;3578;51.568;6.932;2023-09-08T12:57:51;56147.22;;;-144.14;58.39